sensor_id;sensor_type;location;lat;lon;timestamp;pressure;altitude;pressure_sealevel;temperature;humidity
45941;BME280;31858;46.008;8.978;2023-02-11T00:09:56;96233.91;;;0.72;51.80
45941;BME280;31858;46.008;8.978;2023-02-11T00:19:58;96226.09;;;0.51;53.53
45941;BME280;31858;46.008;8.978;2023-02-11T00:30:01;96224.44;;;0.76;51.51
45941;BME280;31858;46.008;8.978;2023-02-11T00:40:05;96220.31;;;0.49;54.01
45941;BME280;31858;46.008;8.978;2023-02-11T00:50:08;96216.94;;;0.39;54.04
45941;BME280;31858;46.008;8.978;2023-02-11T01:00:11;96209.59;;;0.36;53.54
45941;BME280;31858;46.008;8.978;2023-02-11T01:10:15;96220.63;;;0.17;54.24
45941;BME280;31858;46.008;8.978;2023-02-11T01:20:19;96214.59;;;0.32;54.25
45941;BME280;31858;46.008;8.978;2023-02-11T01:30:23;96212.44;;;0.49;52.59
45941;BME280;31858;46.008;8.978;2023-02-11T01:40:24;96206.19;;;0.40;53.82
45941;BME280;31858;46.008;8.978;2023-02-11T01:50:27;96187.03;;;0.35;52.82
45941;BME280;31858;46.008;8.978;2023-02-11T02:00:32;96195.16;;;0.43;52.37
45941;BME280;31858;46.008;8.978;2023-02-11T02:10:40;96194.94;;;0.04;54.12
45941;BME280;31858;46.008;8.978;2023-02-11T02:31:40;96165.13;;;0.00;54.30
45941;BME280;31858;46.008;8.978;2023-02-11T02:41:48;96167.16;;;0.13;53.56
45941;BME280;31858;46.008;8.978;2023-02-11T02:52:02;96148.81;;;0.13;52.27
45941;BME280;31858;46.008;8.978;2023-02-11T03:02:10;96140.75;;;-0.01;52.99
45941;BME280;31858;46.008;8.978;2023-02-11T03:12:15;96127.41;;;-0.14;53.62
45941;BME280;31858;46.008;8.978;2023-02-11T03:22:21;96128.47;;;-0.25;54.47
45941;BME280;31858;46.008;8.978;2023-02-11T03:32:29;96124.25;;;-0.16;55.02
45941;BME280;31858;46.008;8.978;2023-02-11T03:42:39;96109.31;;;-0.11;54.47
45941;BME280;31858;46.008;8.978;2023-02-11T03:52:44;96108.28;;;-0.20;53.99
45941;BME280;31858;46.008;8.978;2023-02-11T04:02:48;96091.47;;;-0.04;53.02
45941;BME280;31858;46.008;8.978;2023-02-11T04:12:50;96093.06;;;-0.03;54.33
45941;BME280;31858;46.008;8.978;2023-02-11T04:22:53;96093.00;;;0.08;53.35
45941;BME280;31858;46.008;8.978;2023-02-11T04:32:54;96076.22;;;0.14;51.62
45941;BME280;31858;46.008;8.978;2023-02-11T04:42:57;96075.69;;;0.12;52.05
45941;BME280;31858;46.008;8.978;2023-02-11T04:52:59;96067.56;;;0.08;50.48
45941;BME280;31858;46.008;8.978;2023-02-11T05:03:02;96065.41;;;0.30;51.04
45941;BME280;31858;46.008;8.978;2023-02-11T05:13:04;96053.41;;;0.14;51.46
45941;BME280;31858;46.008;8.978;2023-02-11T05:23:07;96049.25;;;0.03;50.87
45941;BME280;31858;46.008;8.978;2023-02-11T05:33:08;96052.13;;;0.07;51.46
45941;BME280;31858;46.008;8.978;2023-02-11T05:43:11;96060.31;;;-0.15;53.20
45941;BME280;31858;46.008;8.978;2023-02-11T05:53:13;96048.31;;;-0.31;53.50
45941;BME280;31858;46.008;8.978;2023-02-11T06:03:16;96047.94;;;0.06;51.64
45941;BME280;31858;46.008;8.978;2023-02-11T06:13:18;96041.44;;;-0.07;51.83
45941;BME280;31858;46.008;8.978;2023-02-11T06:23:21;96050.50;;;0.16;50.30
45941;BME280;31858;46.008;8.978;2023-02-11T06:33:23;96038.25;;;0.01;51.49
45941;BME280;31858;46.008;8.978;2023-02-11T06:43:25;96039.53;;;0.09;49.49
45941;BME280;31858;46.008;8.978;2023-02-11T06:53:27;96028.78;;;0.05;50.04
45941;BME280;31858;46.008;8.978;2023-02-11T07:03:30;96033.69;;;0.27;50.04
45941;BME280;31858;46.008;8.978;2023-02-11T07:13:32;96030.09;;;0.08;50.10
45941;BME280;31858;46.008;8.978;2023-02-11T07:23:35;96035.66;;;-0.04;51.67
45941;BME280;31858;46.008;8.978;2023-02-11T07:33:37;96045.53;;;0.14;51.47
45941;BME280;31858;46.008;8.978;2023-02-11T07:43:41;96053.59;;;0.33;51.97
45941;BME280;31858;46.008;8.978;2023-02-11T07:53:44;96061.72;;;0.37;50.93
45941;BME280;31858;46.008;8.978;2023-02-11T08:03:48;96048.22;;;0.58;50.51
45941;BME280;31858;46.008;8.978;2023-02-11T08:13:49;96052.91;;;0.67;49.87
45941;BME280;31858;46.008;8.978;2023-02-11T08:23:54;96045.56;;;0.69;50.89
45941;BME280;31858;46.008;8.978;2023-02-11T08:33:55;96055.31;;;0.58;50.61
45941;BME280;31858;46.008;8.978;2023-02-11T08:43:59;96041.81;;;0.80;53.82
45941;BME280;31858;46.008;8.978;2023-02-11T08:54:01;96044.09;;;0.91;57.90
45941;BME280;31858;46.008;8.978;2023-02-11T09:04:04;96039.19;;;1.19;53.68
45941;BME280;31858;46.008;8.978;2023-02-11T09:14:07;96052.94;;;1.35;52.30
45941;BME280;31858;46.008;8.978;2023-02-11T09:24:16;96052.59;;;1.75;45.89
45941;BME280;31858;46.008;8.978;2023-02-11T09:34:18;96052.50;;;2.09;46.72
45941;BME280;31858;46.008;8.978;2023-02-11T09:44:23;96056.97;;;2.09;51.17
45941;BME280;31858;46.008;8.978;2023-02-11T09:54:28;96071.97;;;2.32;52.38
45941;BME280;31858;46.008;8.978;2023-02-11T10:04:48;96070.09;;;2.56;53.15
45941;BME280;31858;46.008;8.978;2023-02-11T10:15:14;96080.41;;;2.72;56.20
45941;BME280;31858;46.008;8.978;2023-02-11T10:25:20;96069.31;;;2.75;53.75
45941;BME280;31858;46.008;8.978;2023-02-11T10:35:24;96085.53;;;2.82;48.91
45941;BME280;31858;46.008;8.978;2023-02-11T10:45:32;96075.88;;;3.47;41.43
45941;BME280;31858;46.008;8.978;2023-02-11T10:55:34;96059.44;;;3.69;44.44
45941;BME280;31858;46.008;8.978;2023-02-11T11:05:46;96056.81;;;3.97;44.39
45941;BME280;31858;46.008;8.978;2023-02-11T11:16:14;96035.72;;;4.51;50.81
45941;BME280;31858;46.008;8.978;2023-02-11T11:26:18;96017.78;;;4.76;48.03
45941;BME280;31858;46.008;8.978;2023-02-11T11:36:21;95998.72;;;5.01;49.60
45941;BME280;31858;46.008;8.978;2023-02-11T11:46:28;95991.06;;;5.22;47.27
45941;BME280;31858;46.008;8.978;2023-02-11T11:56:32;95990.28;;;5.44;43.41
45941;BME280;31858;46.008;8.978;2023-02-11T12:06:40;95988.81;;;5.91;43.48
45941;BME280;31858;46.008;8.978;2023-02-11T12:16:51;95986.13;;;6.31;42.05
45941;BME280;31858;46.008;8.978;2023-02-11T12:27:04;95962.31;;;6.57;42.99
45941;BME280;31858;46.008;8.978;2023-02-11T12:37:17;95965.78;;;6.74;43.35
45941;BME280;31858;46.008;8.978;2023-02-11T12:47:30;95955.28;;;7.30;39.40
45941;BME280;31858;46.008;8.978;2023-02-11T12:57:37;95956.22;;;7.25;34.86
45941;BME280;31858;46.008;8.978;2023-02-11T13:07:44;95940.88;;;7.48;36.41
45941;BME280;31858;46.008;8.978;2023-02-11T13:17:53;95928.94;;;7.71;37.57
45941;BME280;31858;46.008;8.978;2023-02-11T13:28:04;95924.34;;;7.80;36.01
45941;BME280;31858;46.008;8.978;2023-02-11T13:38:17;95926.28;;;8.01;36.84
45941;BME280;31858;46.008;8.978;2023-02-11T13:48:22;95926.66;;;8.20;36.39
45941;BME280;31858;46.008;8.978;2023-02-11T13:58:36;95915.84;;;8.25;36.59
45941;BME280;31858;46.008;8.978;2023-02-11T14:08:59;95914.06;;;8.38;36.24
45941;BME280;31858;46.008;8.978;2023-02-11T14:19:03;95907.47;;;8.65;36.90
45941;BME280;31858;46.008;8.978;2023-02-11T14:29:14;95906.13;;;8.59;36.73
45941;BME280;31858;46.008;8.978;2023-02-11T14:39:23;95904.09;;;8.76;36.72
45941;BME280;31858;46.008;8.978;2023-02-11T14:49:33;95909.13;;;8.90;37.11
45941;BME280;31858;46.008;8.978;2023-02-11T14:59:37;95896.09;;;8.97;36.43
45941;BME280;31858;46.008;8.978;2023-02-11T15:09:41;95890.66;;;8.94;36.98
45941;BME280;31858;46.008;8.978;2023-02-11T15:19:46;95893.97;;;8.91;37.22
45941;BME280;31858;46.008;8.978;2023-02-11T15:29:51;95881.69;;;8.98;38.48
45941;BME280;31858;46.008;8.978;2023-02-11T15:39:53;95879.25;;;8.93;38.86
45941;BME280;31858;46.008;8.978;2023-02-11T15:49:57;95888.84;;;8.86;37.38
45941;BME280;31858;46.008;8.978;2023-02-11T15:59:58;95872.97;;;8.77;37.27
45941;BME280;31858;46.008;8.978;2023-02-11T16:10:17;95878.31;;;8.56;38.84
45941;BME280;31858;46.008;8.978;2023-02-11T16:20:19;95872.06;;;8.31;39.54
45941;BME280;31858;46.008;8.978;2023-02-11T16:30:26;95877.22;;;8.07;40.20
45941;BME280;31858;46.008;8.978;2023-02-11T16:40:28;95881.06;;;7.89;38.74
45941;BME280;31858;46.008;8.978;2023-02-11T16:50:31;95885.19;;;7.48;40.61
45941;BME280;31858;46.008;8.978;2023-02-11T17:00:34;95888.41;;;7.62;38.76
45941;BME280;31858;46.008;8.978;2023-02-11T17:10:37;95885.38;;;7.43;39.45
45941;BME280;31858;46.008;8.978;2023-02-11T17:20:39;95887.97;;;6.96;40.17
45941;BME280;31858;46.008;8.978;2023-02-11T17:30:42;95898.00;;;6.73;40.47
45941;BME280;31858;46.008;8.978;2023-02-11T17:40:44;95897.84;;;6.52;41.13
45941;BME280;31858;46.008;8.978;2023-02-11T17:50:47;95891.47;;;6.28;42.17
45941;BME280;31858;46.008;8.978;2023-02-11T18:00:48;95902.00;;;6.02;43.43
45941;BME280;31858;46.008;8.978;2023-02-11T18:10:51;95900.06;;;5.76;44.51
45941;BME280;31858;46.008;8.978;2023-02-11T18:20:56;95896.31;;;5.77;44.56
45941;BME280;31858;46.008;8.978;2023-02-11T18:31:00;95911.22;;;5.65;43.67
45941;BME280;31858;46.008;8.978;2023-02-11T18:41:02;95901.22;;;5.53;43.51
45941;BME280;31858;46.008;8.978;2023-02-11T18:51:08;95895.72;;;5.41;44.64
45941;BME280;31858;46.008;8.978;2023-02-11T19:01:13;95892.38;;;5.27;45.13
45941;BME280;31858;46.008;8.978;2023-02-11T19:11:17;95896.09;;;5.17;45.65
45941;BME280;31858;46.008;8.978;2023-02-11T19:21:19;95885.41;;;5.31;46.00
45941;BME280;31858;46.008;8.978;2023-02-11T19:31:22;95876.22;;;5.19;45.57
45941;BME280;31858;46.008;8.978;2023-02-11T19:41:23;95868.31;;;4.97;45.50
45941;BME280;31858;46.008;8.978;2023-02-11T19:51:26;95878.59;;;4.99;45.70
45941;BME280;31858;46.008;8.978;2023-02-11T20:01:28;95884.47;;;4.96;45.62
45941;BME280;31858;46.008;8.978;2023-02-11T20:11:32;95885.50;;;4.86;45.96
45941;BME280;31858;46.008;8.978;2023-02-11T20:21:34;95879.97;;;4.96;45.71
45941;BME280;31858;46.008;8.978;2023-02-11T20:31:37;95870.72;;;5.07;45.20
45941;BME280;31858;46.008;8.978;2023-02-11T20:41:39;95875.25;;;5.15;45.30
45941;BME280;31858;46.008;8.978;2023-02-11T20:51:42;95874.38;;;4.98;45.01
45941;BME280;31858;46.008;8.978;2023-02-11T21:01:47;95875.06;;;4.81;45.83
45941;BME280;31858;46.008;8.978;2023-02-11T21:11:51;95883.47;;;4.83;44.94
45941;BME280;31858;46.008;8.978;2023-02-11T21:21:52;95884.53;;;4.82;45.53
45941;BME280;31858;46.008;8.978;2023-02-11T21:31:57;95885.19;;;4.87;44.76
45941;BME280;31858;46.008;8.978;2023-02-11T21:41:59;95885.63;;;4.81;45.11
45941;BME280;31858;46.008;8.978;2023-02-11T21:52:03;95879.56;;;4.80;44.88
45941;BME280;31858;46.008;8.978;2023-02-11T22:02:04;95885.31;;;4.60;45.99
45941;BME280;31858;46.008;8.978;2023-02-11T22:12:07;95887.78;;;4.79;45.00
45941;BME280;31858;46.008;8.978;2023-02-11T22:22:09;95890.44;;;4.79;44.60
45941;BME280;31858;46.008;8.978;2023-02-11T22:32:14;95882.88;;;4.86;45.06
45941;BME280;31858;46.008;8.978;2023-02-11T22:42:16;95887.56;;;4.67;46.48
45941;BME280;31858;46.008;8.978;2023-02-11T22:52:19;95873.38;;;4.63;46.30
45941;BME280;31858;46.008;8.978;2023-02-11T23:02:22;95876.44;;;4.56;47.07
45941;BME280;31858;46.008;8.978;2023-02-11T23:12:25;95878.19;;;4.61;46.42
45941;BME280;31858;46.008;8.978;2023-02-11T23:22:27;95875.13;;;4.67;46.27
45941;BME280;31858;46.008;8.978;2023-02-11T23:32:30;95878.78;;;4.35;47.29
45941;BME280;31858;46.008;8.978;2023-02-11T23:42:31;95871.69;;;4.44;46.52
45941;BME280;31858;46.008;8.978;2023-02-11T23:52:34;95855.28;;;4.47;47.49
